createdAt,value
2023-08-17T00:00:41.454Z,20.30
2023-08-17T00:03:09.557Z,20.30
2023-08-17T00:05:38.032Z,20.30
2023-08-17T00:08:06.779Z,20.30
2023-08-17T00:10:34.880Z,20.30
2023-08-17T00:13:04.783Z,20.20
2023-08-17T00:15:34.417Z,20.10
2023-08-17T00:18:03.037Z,20.10
2023-08-17T00:20:31.109Z,20.10
2023-08-17T00:22:59.219Z,20.10
2023-08-17T00:25:27.392Z,20.10
2023-08-17T00:27:55.602Z,20.10
2023-08-17T00:30:23.766Z,20.20
2023-08-17T00:32:53.175Z,20.10
2023-08-17T00:35:21.421Z,20.10
2023-08-17T00:37:49.544Z,20.10
2023-08-17T00:40:17.656Z,20.10
2023-08-17T00:42:45.751Z,20.10
2023-08-17T00:45:13.868Z,20.10
2023-08-17T00:47:44.226Z,20.10
2023-08-17T00:50:13.925Z,20.00
2023-08-17T00:52:42.523Z,20.00
2023-08-17T00:55:13.394Z,20.00
2023-08-17T00:57:42.584Z,20.00
2023-08-17T01:00:12.612Z,20.00
2023-08-17T01:02:41.362Z,20.00
2023-08-17T01:05:10.256Z,20.00
2023-08-17T01:07:39.787Z,20.00
2023-08-17T01:10:11.139Z,20.00
2023-08-17T01:12:46.165Z,20.00
2023-08-17T01:15:19.367Z,19.90
2023-08-17T01:17:55.386Z,19.90
2023-08-17T01:20:25.146Z,19.90
2023-08-17T01:22:58.704Z,19.90
2023-08-17T01:25:28.133Z,19.90
2023-08-17T01:27:56.286Z,19.90
2023-08-17T01:30:24.435Z,19.90
2023-08-17T01:32:56.251Z,19.90
2023-08-17T01:35:32.882Z,19.80
2023-08-17T01:38:02.125Z,19.90
2023-08-17T01:40:34.917Z,19.80
2023-08-17T01:43:04.405Z,19.90
2023-08-17T01:45:32.602Z,19.80
2023-08-17T01:48:03.324Z,19.80
2023-08-17T01:50:32.702Z,19.80
2023-08-17T01:53:00.826Z,19.80
2023-08-17T01:55:29.077Z,19.80
2023-08-17T01:57:58.529Z,19.70
2023-08-17T02:00:26.604Z,19.70
2023-08-17T02:02:54.734Z,19.70
2023-08-17T02:05:22.973Z,19.60
2023-08-17T02:07:51.030Z,19.70
2023-08-17T02:10:19.113Z,19.70
2023-08-17T02:12:48.067Z,19.70
2023-08-17T02:15:17.691Z,19.60
2023-08-17T02:17:46.055Z,19.60
2023-08-17T02:20:15.347Z,19.60
2023-08-17T02:22:44.639Z,19.60
2023-08-17T02:25:12.708Z,19.60
2023-08-17T02:27:40.765Z,19.60
2023-08-17T02:30:09.966Z,19.60
2023-08-17T02:32:39.396Z,19.60
2023-08-17T02:35:09.994Z,19.60
2023-08-17T02:37:38.190Z,19.60
2023-08-17T02:40:07.469Z,19.50
2023-08-17T02:42:35.553Z,19.50
2023-08-17T02:45:03.608Z,19.40
2023-08-17T02:47:31.730Z,19.50
2023-08-17T02:50:01.114Z,19.50
2023-08-17T02:52:29.174Z,19.50
2023-08-17T02:54:57.227Z,19.50
2023-08-17T02:57:26.104Z,19.50
2023-08-17T02:59:54.385Z,19.50
2023-08-17T03:02:22.579Z,19.40
2023-08-17T03:04:50.632Z,19.40
2023-08-17T03:07:20.554Z,19.30
2023-08-17T03:09:48.618Z,19.30
2023-08-17T03:12:16.854Z,19.30
2023-08-17T03:14:44.919Z,19.30
2023-08-17T03:17:13.027Z,19.40
2023-08-17T03:19:41.225Z,19.40
2023-08-17T03:22:09.415Z,19.30
2023-08-17T03:24:38.951Z,19.40
2023-08-17T03:27:07.192Z,19.30
2023-08-17T03:29:36.291Z,19.30
2023-08-17T03:32:04.666Z,19.30
2023-08-17T03:34:32.724Z,19.30
2023-08-17T03:37:02.596Z,19.20
2023-08-17T03:39:31.977Z,19.20
2023-08-17T03:42:01.521Z,19.20
2023-08-17T03:44:29.645Z,19.20
2023-08-17T03:46:57.717Z,19.20
2023-08-17T03:49:25.805Z,19.30
2023-08-17T03:51:53.857Z,19.30
2023-08-17T03:54:23.005Z,19.30
2023-08-17T03:56:51.167Z,19.30
2023-08-17T03:59:20.636Z,19.20
2023-08-17T04:01:48.724Z,19.30
2023-08-17T04:04:17.012Z,19.30
2023-08-17T04:06:45.092Z,19.30
2023-08-17T04:09:13.538Z,19.30
2023-08-17T04:11:42.089Z,19.30
2023-08-17T04:14:10.720Z,19.40
2023-08-17T04:16:40.272Z,19.30
2023-08-17T04:19:08.947Z,19.40
2023-08-17T04:21:37.086Z,19.30
2023-08-17T04:24:06.502Z,19.40
2023-08-17T04:26:34.645Z,19.30
2023-08-17T04:29:03.347Z,19.30
2023-08-17T04:31:31.517Z,19.30
2023-08-17T04:34:04.439Z,19.20
2023-08-17T04:36:32.597Z,19.20
2023-08-17T04:39:00.775Z,19.30
2023-08-17T04:41:28.841Z,19.20
2023-08-17T04:43:57.085Z,19.30
2023-08-17T04:46:25.198Z,19.20
2023-08-17T04:48:53.480Z,19.20
2023-08-17T04:51:22.969Z,19.30
2023-08-17T04:53:51.080Z,19.20
2023-08-17T04:56:19.275Z,19.30
2023-08-17T04:58:48.234Z,19.30
2023-08-17T05:01:17.256Z,19.30
2023-08-17T05:03:45.513Z,19.30
2023-08-17T05:06:14.192Z,19.30
2023-08-17T05:08:43.661Z,19.30
2023-08-17T05:11:11.849Z,19.20
2023-08-17T05:13:40.579Z,19.20
2023-08-17T05:16:08.865Z,19.30
2023-08-17T05:18:37.677Z,19.30
2023-08-17T05:21:05.971Z,19.30
2023-08-17T05:23:34.236Z,19.30
2023-08-17T05:26:03.738Z,19.30
2023-08-17T05:28:32.019Z,19.30
2023-08-17T05:31:06.889Z,19.30
2023-08-17T05:33:37.842Z,19.30
2023-08-17T05:36:06.417Z,19.40
2023-08-17T05:38:34.627Z,19.30
2023-08-17T05:41:04.188Z,19.40
2023-08-17T05:43:32.296Z,19.40
2023-08-17T05:46:01.170Z,19.40
2023-08-17T05:48:29.284Z,19.40
2023-08-17T05:50:57.923Z,19.40
2023-08-17T05:53:26.008Z,19.40
2023-08-17T05:55:54.131Z,19.40
2023-08-17T05:58:23.604Z,19.40
2023-08-17T06:00:52.384Z,19.50
2023-08-17T06:03:20.499Z,19.50
2023-08-17T06:05:48.614Z,19.50
2023-08-17T06:08:16.689Z,19.50
2023-08-17T06:10:44.771Z,19.50
2023-08-17T06:13:12.820Z,19.50
2023-08-17T06:15:42.246Z,19.50
2023-08-17T06:18:10.311Z,19.50
2023-08-17T06:20:38.456Z,19.50
2023-08-17T06:23:06.554Z,19.60
2023-08-17T06:25:35.280Z,19.60
2023-08-17T06:28:03.542Z,19.60
2023-08-17T06:30:31.641Z,19.60
2023-08-17T06:33:01.143Z,19.60
2023-08-17T06:35:29.319Z,19.60
2023-08-17T06:37:58.990Z,19.70
2023-08-17T06:40:27.222Z,19.70
2023-08-17T06:42:55.465Z,19.70
2023-08-17T06:45:23.859Z,19.80
2023-08-17T06:47:52.231Z,19.80
2023-08-17T06:50:21.865Z,19.80
2023-08-17T06:52:50.061Z,19.80
2023-08-17T06:55:18.236Z,19.80
2023-08-17T06:57:49.086Z,19.80
2023-08-17T07:00:21.310Z,19.80
2023-08-17T07:02:54.596Z,19.80
2023-08-17T07:05:26.660Z,19.80
2023-08-17T07:07:55.008Z,19.90
2023-08-17T07:10:23.237Z,19.90
2023-08-17T07:12:51.332Z,19.90
2023-08-17T07:15:19.526Z,19.90
2023-08-17T07:17:47.635Z,19.90
2023-08-17T07:20:17.257Z,19.90
2023-08-17T07:22:47.137Z,20.00
2023-08-17T07:25:15.311Z,20.00
2023-08-17T07:27:43.950Z,20.00
2023-08-17T07:30:13.375Z,20.10
2023-08-17T07:32:41.515Z,20.10
2023-08-17T07:35:10.030Z,20.10
2023-08-17T07:37:38.362Z,20.10
2023-08-17T07:40:09.543Z,20.10
2023-08-17T07:42:38.760Z,20.10
2023-08-17T07:45:08.425Z,20.10
2023-08-17T07:47:37.755Z,20.10
2023-08-17T07:50:06.940Z,20.10
2023-08-17T07:52:34.957Z,20.10
2023-08-17T07:55:02.912Z,20.10
2023-08-17T07:57:32.772Z,20.10
2023-08-17T08:00:00.828Z,20.10
2023-08-17T08:02:28.865Z,20.00
2023-08-17T08:04:57.129Z,20.10
2023-08-17T08:07:25.564Z,20.20
2023-08-17T08:09:53.920Z,20.20
2023-08-17T08:12:22.149Z,20.20
2023-08-17T08:14:52.245Z,20.30
2023-08-17T08:17:21.026Z,20.20
2023-08-17T08:19:49.346Z,20.30
2023-08-17T08:22:17.564Z,20.30
2023-08-17T08:24:45.669Z,20.30
2023-08-17T08:27:13.861Z,20.30
2023-08-17T08:29:42.143Z,20.30
2023-08-17T08:32:11.573Z,20.30
2023-08-17T08:34:39.715Z,20.40
2023-08-17T08:37:07.966Z,20.30
2023-08-17T08:39:50.938Z,20.30
2023-08-17T08:42:19.369Z,20.40
2023-08-17T08:44:47.747Z,20.40
2023-08-17T08:47:18.930Z,20.40
2023-08-17T08:49:56.563Z,20.40
2023-08-17T08:52:25.639Z,20.40
2023-08-17T08:54:59.241Z,20.40
2023-08-17T08:57:30.887Z,20.40
2023-08-17T09:00:01.101Z,20.40
2023-08-17T09:02:32.034Z,20.40
2023-08-17T09:05:02.358Z,20.40
2023-08-17T09:07:31.797Z,20.40
2023-08-17T09:09:59.901Z,20.40
2023-08-17T09:12:39.629Z,20.50
2023-08-17T09:15:09.418Z,20.50
2023-08-17T09:17:39.075Z,20.50
2023-08-17T09:20:09.368Z,20.50
2023-08-17T09:22:42.279Z,20.60
2023-08-17T09:25:11.397Z,20.50
2023-08-17T09:27:40.237Z,20.50
2023-08-17T09:30:10.542Z,20.50
2023-08-17T09:32:40.005Z,20.60
2023-08-17T09:35:09.242Z,20.60
2023-08-17T09:37:37.365Z,20.60
2023-08-17T09:40:05.857Z,20.60
2023-08-17T09:42:37.252Z,20.60
2023-08-17T09:45:06.230Z,20.70
2023-08-17T09:47:34.443Z,20.60
2023-08-17T09:50:08.787Z,20.70
2023-08-17T09:52:41.202Z,20.70
2023-08-17T09:55:11.222Z,20.70
2023-08-17T09:57:40.847Z,20.70
2023-08-17T10:00:10.981Z,20.70
2023-08-17T10:02:39.099Z,20.80
2023-08-17T10:05:14.158Z,20.80
2023-08-17T10:07:46.252Z,20.70
2023-08-17T10:10:15.877Z,20.80
2023-08-17T10:12:49.364Z,20.80
2023-08-17T10:15:20.554Z,20.80
2023-08-17T10:17:58.764Z,20.80
2023-08-17T10:20:30.956Z,20.90
2023-08-17T10:23:04.532Z,20.90
2023-08-17T10:25:33.724Z,21.00
2023-08-17T10:28:04.744Z,20.90
2023-08-17T10:30:33.272Z,20.90
2023-08-17T10:33:02.127Z,21.00
2023-08-17T10:35:32.450Z,21.00
2023-08-17T10:38:01.022Z,21.00
2023-08-17T10:40:29.796Z,21.00
2023-08-17T10:42:58.301Z,21.00
2023-08-17T10:45:32.167Z,21.00
2023-08-17T10:48:29.693Z,21.10
2023-08-17T10:51:04.112Z,21.10
2023-08-17T10:53:43.841Z,21.20
2023-08-17T10:56:16.390Z,21.20
2023-08-17T10:58:45.999Z,21.20
2023-08-17T11:01:15.232Z,21.30
2023-08-17T11:03:44.321Z,21.30
2023-08-17T11:06:19.624Z,21.30
2023-08-17T11:08:56.017Z,21.40
2023-08-17T11:11:24.825Z,21.40
2023-08-17T11:13:57.344Z,21.50
2023-08-17T11:16:26.176Z,21.50
2023-08-17T11:18:56.787Z,21.60
2023-08-17T11:21:26.627Z,21.60
2023-08-17T11:23:57.881Z,21.60
2023-08-17T11:26:26.180Z,21.60
2023-08-17T11:28:54.399Z,21.70
2023-08-17T11:31:22.535Z,21.70
2023-08-17T11:36:24.785Z,21.80
2023-08-17T11:38:55.047Z,21.70
2023-08-17T11:41:23.614Z,21.60
2023-08-17T11:43:52.145Z,21.70
2023-08-17T11:46:20.833Z,21.80
2023-08-17T11:48:49.689Z,21.90
2023-08-17T11:51:17.792Z,21.90
2023-08-17T11:53:50.763Z,22.00
2023-08-17T11:56:20.261Z,22.10
2023-08-17T11:58:48.880Z,22.10
2023-08-17T12:01:18.298Z,22.10
2023-08-17T12:03:47.270Z,22.10
2023-08-17T12:06:15.793Z,22.10
2023-08-17T12:08:47.870Z,22.20
2023-08-17T12:11:18.478Z,22.20
2023-08-17T12:13:51.610Z,22.10
2023-08-17T12:16:20.039Z,22.20
2023-08-17T12:18:50.102Z,22.10
2023-08-17T12:21:18.399Z,22.00
2023-08-17T12:23:46.605Z,22.00
2023-08-17T12:26:20.968Z,22.00
2023-08-17T12:28:51.669Z,22.00
2023-08-17T12:31:25.140Z,22.10
2023-08-17T12:33:54.048Z,22.00
2023-08-17T12:36:22.741Z,22.00
2023-08-17T12:38:52.242Z,22.00
2023-08-17T12:41:20.793Z,22.00
2023-08-17T12:43:50.238Z,22.10
2023-08-17T12:46:18.426Z,22.10
2023-08-17T12:48:46.553Z,22.10
2023-08-17T12:51:14.772Z,22.10
2023-08-17T12:53:43.600Z,22.10
2023-08-17T12:56:17.752Z,22.20
2023-08-17T12:58:45.818Z,22.10
2023-08-17T13:01:15.569Z,22.10
2023-08-17T13:03:43.682Z,22.10
2023-08-17T13:06:11.842Z,22.10
2023-08-17T13:08:42.976Z,22.10
2023-08-17T13:11:12.395Z,22.10
2023-08-17T13:13:40.475Z,22.10
2023-08-17T13:16:08.710Z,22.10
2023-08-17T13:18:38.258Z,22.00
2023-08-17T13:21:06.418Z,22.00
2023-08-17T13:23:34.667Z,22.00
2023-08-17T13:26:02.820Z,21.90
2023-08-17T13:28:30.945Z,21.90
2023-08-17T13:31:07.788Z,21.90
2023-08-17T13:33:47.765Z,21.90
2023-08-17T13:36:15.927Z,22.00
2023-08-17T13:38:45.354Z,21.90
2023-08-17T13:41:13.576Z,21.90
2023-08-17T13:43:41.994Z,21.90
2023-08-17T13:46:10.719Z,21.90
2023-08-17T13:48:40.168Z,21.90
2023-08-17T13:51:09.669Z,21.90
2023-08-17T13:53:37.867Z,21.90
2023-08-17T13:56:06.274Z,21.90
2023-08-17T13:58:34.497Z,21.90
2023-08-17T14:01:02.748Z,21.90
2023-08-17T14:03:31.668Z,21.80
2023-08-17T14:05:59.874Z,21.80
2023-08-17T14:08:29.360Z,21.80
2023-08-17T14:10:57.443Z,21.80
2023-08-17T14:13:25.577Z,21.80
2023-08-17T14:15:57.007Z,21.80
2023-08-17T14:18:25.292Z,21.80
2023-08-17T14:20:53.425Z,21.80
2023-08-17T14:23:21.526Z,21.80
2023-08-17T14:25:53.002Z,21.80
2023-08-17T14:28:21.403Z,21.80
2023-08-17T14:33:20.710Z,21.80
2023-08-17T14:35:48.937Z,21.80
2023-08-17T14:38:17.201Z,21.80
2023-08-17T14:40:46.225Z,21.80
2023-08-17T14:43:15.787Z,21.80
2023-08-17T14:45:44.687Z,21.80
2023-08-17T14:48:12.904Z,21.80
2023-08-17T14:50:41.038Z,21.80
2023-08-17T14:53:09.189Z,21.80
2023-08-17T14:55:37.280Z,21.90
2023-08-17T14:58:05.843Z,21.80
2023-08-17T15:00:35.881Z,21.80
2023-08-17T15:03:04.221Z,21.80
2023-08-17T15:05:32.397Z,21.90
2023-08-17T15:08:00.464Z,21.90
2023-08-17T15:10:28.565Z,21.90
2023-08-17T15:12:56.675Z,21.80
2023-08-17T15:15:35.655Z,21.90
2023-08-17T15:18:03.773Z,21.90
2023-08-17T15:20:34.610Z,21.90
2023-08-17T15:23:02.729Z,21.90
2023-08-17T15:25:30.814Z,21.90
2023-08-17T15:27:58.863Z,21.90
2023-08-17T15:30:26.960Z,21.90
2023-08-17T15:32:56.408Z,21.90
2023-08-17T15:35:24.556Z,21.90
2023-08-17T15:37:52.636Z,21.80
2023-08-17T15:40:21.006Z,21.80
2023-08-17T15:42:49.478Z,21.90
2023-08-17T15:45:18.994Z,21.90
2023-08-17T15:47:47.075Z,21.90
2023-08-17T15:50:16.528Z,21.90
2023-08-17T15:52:44.795Z,21.90
2023-08-17T15:55:12.927Z,21.90
2023-08-17T15:57:41.004Z,21.90
2023-08-17T16:00:10.530Z,21.90
2023-08-17T16:02:38.620Z,21.90
2023-08-17T16:05:07.457Z,21.90
2023-08-17T16:07:36.935Z,21.90
2023-08-17T16:10:06.843Z,21.90
2023-08-17T16:12:34.941Z,21.90
2023-08-17T16:15:03.515Z,21.90
2023-08-17T16:17:31.887Z,21.90
2023-08-17T16:20:00.238Z,21.80
2023-08-17T16:22:28.306Z,21.80
2023-08-17T16:24:57.763Z,21.80
2023-08-17T16:27:26.074Z,21.90
2023-08-17T16:29:55.830Z,21.80
2023-08-17T16:32:24.095Z,21.80
2023-08-17T16:34:52.220Z,21.90
2023-08-17T16:37:20.325Z,21.70
2023-08-17T16:39:48.427Z,21.80
2023-08-17T16:42:19.251Z,21.80
2023-08-17T16:44:47.333Z,21.80
2023-08-17T16:47:19.792Z,21.80
2023-08-17T16:49:48.105Z,21.80
2023-08-17T16:52:16.212Z,21.80
2023-08-17T16:54:47.281Z,21.80
2023-08-17T16:57:17.818Z,21.80
2023-08-17T16:59:46.095Z,21.80
2023-08-17T17:02:14.751Z,21.80
2023-08-17T17:04:44.653Z,21.80
2023-08-17T17:07:12.741Z,21.80
2023-08-17T17:09:40.844Z,21.80
2023-08-17T17:12:09.369Z,21.80
2023-08-17T17:14:40.516Z,21.80
2023-08-17T17:17:08.744Z,21.80
2023-08-17T17:19:36.931Z,21.80
2023-08-17T17:22:05.501Z,21.80
2023-08-17T17:24:33.718Z,21.80
2023-08-17T17:27:01.804Z,21.80
2023-08-17T17:29:29.912Z,21.80
2023-08-17T17:31:59.370Z,21.80
2023-08-17T17:34:27.459Z,21.80
2023-08-17T17:36:55.773Z,21.80
2023-08-17T17:39:23.866Z,21.70
2023-08-17T17:41:51.974Z,21.80
2023-08-17T17:44:20.044Z,21.70
2023-08-17T17:46:48.184Z,21.70
2023-08-17T17:49:17.624Z,21.70
2023-08-17T17:51:46.052Z,21.80
2023-08-17T17:54:14.127Z,21.70
2023-08-17T17:56:43.417Z,21.70
2023-08-17T17:59:12.010Z,21.70
2023-08-17T18:01:40.412Z,21.70
2023-08-17T18:04:08.678Z,21.70
2023-08-17T18:06:38.150Z,21.70
2023-08-17T18:09:06.803Z,21.70
2023-08-17T18:11:34.955Z,21.70
2023-08-17T18:14:03.526Z,21.70
2023-08-17T18:16:32.133Z,21.70
2023-08-17T18:19:00.307Z,21.70
2023-08-17T18:21:31.087Z,21.70
2023-08-17T18:24:01.123Z,21.70
2023-08-17T18:26:29.227Z,21.70
2023-08-17T18:28:57.513Z,21.70
2023-08-17T18:31:25.601Z,21.70
2023-08-17T18:33:53.715Z,21.70
2023-08-17T18:36:21.806Z,21.70
2023-08-17T18:38:49.912Z,21.70
2023-08-17T18:41:19.393Z,21.70
2023-08-17T18:43:47.557Z,21.70
2023-08-17T18:46:15.729Z,21.70
2023-08-17T18:48:43.903Z,21.70
2023-08-17T18:51:12.162Z,21.60
2023-08-17T18:53:40.282Z,21.60
2023-08-17T18:56:08.450Z,21.60
2023-08-17T18:58:37.850Z,21.60
2023-08-17T19:01:05.920Z,21.60
2023-08-17T19:03:34.112Z,21.60
2023-08-17T19:06:03.380Z,21.60
2023-08-17T19:08:31.546Z,21.60
2023-08-17T19:10:59.669Z,21.60
2023-08-17T19:13:27.973Z,21.60
2023-08-17T19:15:57.424Z,21.60
2023-08-17T19:18:25.648Z,21.60
2023-08-17T19:20:53.781Z,21.50
2023-08-17T19:23:21.986Z,21.60
2023-08-17T19:25:50.201Z,21.60
2023-08-17T19:28:18.329Z,21.60
2023-08-17T19:30:46.458Z,21.60
2023-08-17T19:33:15.853Z,21.50
2023-08-17T19:35:46.113Z,21.60
2023-08-17T19:38:14.481Z,21.50
2023-08-17T19:40:45.637Z,21.50
2023-08-17T19:43:13.798Z,21.60
2023-08-17T19:45:42.165Z,21.50
2023-08-17T19:48:10.420Z,21.50
2023-08-17T19:50:41.540Z,21.50
2023-08-17T19:53:09.662Z,21.50
2023-08-17T19:55:37.878Z,21.50
2023-08-17T19:58:06.283Z,21.50
2023-08-17T20:00:34.349Z,21.50
2023-08-17T20:03:02.575Z,21.50
2023-08-17T20:05:30.740Z,21.50
2023-08-17T20:08:00.209Z,21.50
2023-08-17T20:10:28.346Z,21.50
2023-08-17T20:12:56.453Z,21.50
2023-08-17T20:15:24.586Z,21.50
2023-08-17T20:17:52.735Z,21.50
2023-08-17T20:20:21.041Z,21.40
2023-08-17T20:22:49.144Z,21.40
2023-08-17T20:25:18.768Z,21.40
2023-08-17T20:27:46.870Z,21.40
2023-08-17T20:30:15.262Z,21.40
2023-08-17T20:32:43.397Z,21.40
2023-08-17T20:35:11.669Z,21.40
2023-08-17T20:37:40.424Z,21.40
2023-08-17T20:40:10.213Z,21.40
2023-08-17T20:42:39.667Z,21.40
2023-08-17T20:45:09.180Z,21.30
2023-08-17T20:47:37.258Z,21.40
2023-08-17T20:50:08.449Z,21.30
2023-08-17T20:52:36.536Z,21.30
2023-08-17T20:55:05.395Z,21.30
2023-08-17T20:57:33.458Z,21.30
2023-08-17T21:00:02.941Z,21.30
2023-08-17T21:02:31.077Z,21.30
2023-08-17T21:04:59.175Z,21.30
2023-08-17T21:07:30.422Z,21.30
2023-08-17T21:09:58.932Z,21.20
2023-08-17T21:12:28.486Z,21.30
2023-08-17T21:14:58.290Z,21.40
2023-08-17T21:17:28.712Z,21.40
2023-08-17T21:19:57.188Z,21.30
2023-08-17T21:22:25.354Z,21.30
2023-08-17T21:24:53.495Z,21.30
2023-08-17T21:27:21.547Z,21.30
2023-08-17T21:29:49.621Z,21.30
2023-08-17T21:32:17.731Z,21.30
2023-08-17T21:34:47.849Z,21.30
2023-08-17T21:37:27.445Z,21.30
2023-08-17T21:39:56.591Z,21.30
2023-08-17T21:42:24.831Z,21.20
2023-08-17T21:44:53.554Z,21.30
2023-08-17T21:47:21.729Z,21.20
2023-08-17T21:49:51.162Z,21.20
2023-08-17T21:52:19.437Z,21.20
2023-08-17T21:54:50.119Z,21.20
2023-08-17T21:57:18.322Z,21.20
2023-08-17T21:59:46.563Z,21.10
2023-08-17T22:02:14.688Z,21.20
2023-08-17T22:04:42.760Z,21.10
2023-08-17T22:07:12.168Z,21.20
2023-08-17T22:09:40.298Z,21.10
2023-08-17T22:12:08.680Z,21.20
2023-08-17T22:14:36.789Z,21.20
2023-08-17T22:17:04.854Z,21.10
2023-08-17T22:19:33.140Z,21.10
2023-08-17T22:22:01.280Z,21.10
2023-08-17T22:24:37.989Z,21.10
2023-08-17T22:27:17.747Z,21.10
2023-08-17T22:29:45.975Z,21.10
2023-08-17T22:32:14.099Z,21.10
2023-08-17T22:34:42.174Z,21.10
2023-08-17T22:37:11.486Z,21.00
2023-08-17T22:39:40.987Z,21.00
2023-08-17T22:42:09.097Z,21.10
2023-08-17T22:44:37.254Z,21.00
2023-08-17T22:47:05.575Z,21.10
2023-08-17T22:49:33.769Z,21.10
2023-08-17T22:52:01.950Z,21.10
2023-08-17T22:54:30.039Z,21.00
2023-08-17T22:56:59.502Z,21.00
2023-08-17T22:59:28.024Z,21.00
2023-08-17T23:01:56.226Z,21.00
2023-08-17T23:04:26.881Z,21.00
2023-08-17T23:06:56.692Z,21.00
2023-08-17T23:09:24.823Z,21.00
2023-08-17T23:11:52.884Z,21.10
2023-08-17T23:14:23.334Z,21.00
2023-08-17T23:16:51.435Z,21.00
2023-08-17T23:19:19.507Z,21.00
2023-08-17T23:21:47.611Z,21.00
2023-08-17T23:24:15.716Z,20.90
2023-08-17T23:26:43.804Z,20.90
2023-08-17T23:29:12.509Z,21.00
2023-08-17T23:31:42.503Z,20.90
2023-08-17T23:34:10.803Z,21.00
2023-08-17T23:36:38.910Z,20.90
2023-08-17T23:39:08.315Z,20.90
2023-08-17T23:41:36.489Z,20.90
2023-08-17T23:44:04.813Z,20.90
2023-08-17T23:46:32.880Z,20.90
2023-08-17T23:49:02.318Z,20.80
2023-08-17T23:51:30.406Z,20.90
2023-08-17T23:53:58.487Z,20.90
2023-08-17T23:56:26.750Z,20.80
2023-08-17T23:58:54.807Z,20.90
